createdAt,value
2019-03-17T00:00:49.195Z,2.90
2019-03-17T00:03:18.010Z,2.90
2019-03-17T00:05:46.876Z,2.90
2019-03-17T00:08:15.765Z,2.90
2019-03-17T00:10:48.345Z,2.90
2019-03-17T00:13:17.873Z,2.90
2019-03-17T00:15:49.498Z,2.90
2019-03-17T00:18:18.489Z,2.90
2019-03-17T00:20:47.383Z,2.90
2019-03-17T00:23:18.690Z,2.90
2019-03-17T00:25:48.544Z,3.00
2019-03-17T00:28:18.292Z,2.90
2019-03-17T00:30:47.241Z,3.00
2019-03-17T00:33:16.133Z,3.00
2019-03-17T00:35:45.023Z,3.00
2019-03-17T00:38:13.820Z,3.00
2019-03-17T00:40:42.698Z,3.00
2019-03-17T00:43:15.172Z,3.00
2019-03-17T00:45:48.261Z,3.00
2019-03-17T00:48:18.063Z,3.00
2019-03-17T00:50:50.864Z,3.00
2019-03-17T00:53:23.930Z,3.00
2019-03-17T00:55:55.294Z,3.00
2019-03-17T00:58:25.065Z,3.00
2019-03-17T01:00:55.012Z,2.90
2019-03-17T01:03:27.343Z,2.90
2019-03-17T01:05:56.276Z,2.90
2019-03-17T01:08:25.112Z,2.90
2019-03-17T01:10:54.983Z,2.90
2019-03-17T01:13:23.867Z,2.80
2019-03-17T01:15:52.758Z,2.90
2019-03-17T01:18:23.495Z,2.80
2019-03-17T01:20:52.286Z,2.80
2019-03-17T01:23:21.270Z,2.80
2019-03-17T01:25:50.262Z,2.80
2019-03-17T01:28:19.256Z,2.80
2019-03-17T01:30:48.145Z,2.80
2019-03-17T01:33:19.597Z,2.80
2019-03-17T01:35:48.589Z,2.80
2019-03-17T01:38:20.056Z,2.80
2019-03-17T01:40:49.854Z,2.80
2019-03-17T01:43:22.640Z,2.80
2019-03-17T01:45:51.527Z,2.80
2019-03-17T01:48:23.492Z,2.80
2019-03-17T01:50:53.506Z,2.80
2019-03-17T01:53:22.495Z,2.80
2019-03-17T01:55:51.382Z,2.70
2019-03-17T01:58:20.375Z,2.70
2019-03-17T02:00:49.367Z,2.70
2019-03-17T02:03:18.273Z,2.80
2019-03-17T02:05:47.149Z,2.80
2019-03-17T02:08:15.955Z,2.80
2019-03-17T02:10:44.826Z,2.80
2019-03-17T02:13:15.780Z,2.80
2019-03-17T02:15:46.641Z,2.80
2019-03-17T02:18:14.669Z,2.80
2019-03-17T02:20:43.559Z,2.90
2019-03-17T02:23:14.917Z,2.80
2019-03-17T02:25:46.262Z,2.80
2019-03-17T02:28:15.180Z,2.80
2019-03-17T02:30:47.314Z,2.80
2019-03-17T02:33:22.608Z,2.80
2019-03-17T02:35:55.742Z,2.80
2019-03-17T02:38:24.441Z,2.80
2019-03-17T02:40:54.341Z,2.80
2019-03-17T02:43:24.459Z,2.80
2019-03-17T02:46:02.625Z,2.80
2019-03-17T02:48:26.865Z,2.80
2019-03-17T02:50:58.401Z,2.80
2019-03-17T02:53:27.291Z,2.70
2019-03-17T02:55:56.188Z,2.80
2019-03-17T02:58:27.157Z,2.70
2019-03-17T03:00:56.520Z,2.70
2019-03-17T03:03:27.972Z,2.70
2019-03-17T03:05:56.859Z,2.70
2019-03-17T03:08:30.488Z,2.70
2019-03-17T03:11:00.479Z,2.80
2019-03-17T03:13:29.268Z,2.70
2019-03-17T03:15:59.079Z,2.70
2019-03-17T03:18:27.971Z,2.70
2019-03-17T03:20:57.883Z,2.70
2019-03-17T03:23:26.773Z,2.70
2019-03-17T03:25:56.599Z,2.60
2019-03-17T03:28:25.572Z,2.60
2019-03-17T03:30:58.017Z,2.50
2019-03-17T03:33:31.713Z,2.40
2019-03-17T03:36:11.072Z,2.40
2019-03-17T03:38:34.955Z,2.40
2019-03-17T03:41:04.166Z,2.40
2019-03-17T03:43:33.354Z,2.40
2019-03-17T03:46:02.241Z,2.50
2019-03-17T03:48:32.156Z,2.50
2019-03-17T03:51:04.630Z,2.50
2019-03-17T03:53:38.465Z,2.60
2019-03-17T03:56:07.688Z,2.60
2019-03-17T03:58:36.642Z,2.60
2019-03-17T04:01:06.511Z,2.60
2019-03-17T04:03:35.434Z,2.60
2019-03-17T04:06:04.318Z,2.50
2019-03-17T04:08:35.870Z,2.50
2019-03-17T04:11:04.760Z,2.50
2019-03-17T04:13:33.571Z,2.60
2019-03-17T04:16:03.475Z,2.50
2019-03-17T04:18:32.359Z,2.50
2019-03-17T04:21:03.811Z,2.50
2019-03-17T04:23:32.694Z,2.50
2019-03-17T04:26:05.680Z,2.50
2019-03-17T04:28:36.411Z,2.50
2019-03-17T04:31:05.200Z,2.50
2019-03-17T04:33:34.191Z,2.50
2019-03-17T04:36:03.005Z,2.50
2019-03-17T04:38:32.074Z,2.50
2019-03-17T04:41:01.885Z,2.50
2019-03-17T04:43:30.776Z,2.60
2019-03-17T04:45:59.663Z,2.60
2019-03-17T04:48:28.556Z,2.60
2019-03-17T04:50:57.548Z,2.70
2019-03-17T04:53:26.440Z,2.70
2019-03-17T04:55:56.352Z,2.70
2019-03-17T04:58:25.342Z,2.80
2019-03-17T05:00:54.233Z,2.80
2019-03-17T05:03:23.125Z,2.90
2019-03-17T05:05:54.573Z,2.90
2019-03-17T05:08:24.794Z,3.00
2019-03-17T05:10:59.941Z,3.10
2019-03-17T05:13:30.855Z,3.10
2019-03-17T05:16:06.431Z,3.20
2019-03-17T05:18:35.410Z,3.30
2019-03-17T05:21:04.296Z,3.40
2019-03-17T05:23:34.214Z,3.40
2019-03-17T05:26:05.865Z,3.50
2019-03-17T05:28:39.688Z,3.50
2019-03-17T05:31:08.561Z,3.50
2019-03-17T05:33:37.454Z,3.60
2019-03-17T05:36:06.339Z,3.60
2019-03-17T05:38:35.139Z,3.60
2019-03-17T05:41:03.929Z,3.70
2019-03-17T05:43:32.807Z,3.70
2019-03-17T05:46:04.422Z,3.70
2019-03-17T05:48:34.287Z,3.80
2019-03-17T05:51:03.161Z,3.80
2019-03-17T05:53:35.022Z,3.90
2019-03-17T05:56:03.915Z,3.90
2019-03-17T05:58:32.803Z,3.90
2019-03-17T06:01:05.802Z,3.90
2019-03-17T06:03:38.056Z,3.90
2019-03-17T06:06:10.372Z,4.00
2019-03-17T06:08:43.145Z,3.90
2019-03-17T06:11:14.597Z,4.00
2019-03-17T06:13:42.939Z,4.00
2019-03-17T06:16:12.951Z,4.00
2019-03-17T06:18:44.608Z,4.00
2019-03-17T06:21:14.424Z,4.10
2019-03-17T06:23:43.306Z,4.10
2019-03-17T06:26:14.733Z,4.10
2019-03-17T06:28:44.681Z,4.20
2019-03-17T06:31:13.563Z,4.30
2019-03-17T06:33:44.865Z,4.20
2019-03-17T06:36:13.800Z,4.20
2019-03-17T06:38:42.893Z,4.10
2019-03-17T06:41:15.573Z,4.20
2019-03-17T06:43:44.466Z,4.30
2019-03-17T06:46:13.352Z,4.40
2019-03-17T06:48:43.268Z,4.40
2019-03-17T06:51:12.071Z,4.50
2019-03-17T06:53:40.945Z,4.50
2019-03-17T06:56:09.939Z,4.50
2019-03-17T06:58:38.837Z,4.60
2019-03-17T07:01:07.749Z,4.80
2019-03-17T07:03:39.110Z,4.90
2019-03-17T07:06:08.062Z,4.90
2019-03-17T07:08:40.619Z,5.00
2019-03-17T07:11:13.226Z,4.90
2019-03-17T07:13:42.103Z,5.00
2019-03-17T07:16:14.673Z,5.00
2019-03-17T07:18:44.530Z,5.00
2019-03-17T07:21:16.977Z,5.10
2019-03-17T07:23:45.857Z,5.10
2019-03-17T07:26:20.883Z,5.10
2019-03-17T07:28:49.774Z,5.00
2019-03-17T07:31:25.728Z,5.00
2019-03-17T07:33:54.620Z,5.00
2019-03-17T07:36:23.509Z,5.00
2019-03-17T07:39:11.146Z,5.00
2019-03-17T07:41:29.892Z,5.10
2019-03-17T07:44:02.570Z,5.20
2019-03-17T07:46:31.459Z,5.30
2019-03-17T07:49:02.916Z,5.40
2019-03-17T07:51:33.823Z,5.40
2019-03-17T07:54:11.976Z,5.50
2019-03-17T07:56:45.582Z,5.40
2019-03-17T07:59:13.654Z,5.40
2019-03-17T08:01:42.620Z,5.40
2019-03-17T08:04:16.451Z,5.50
2019-03-17T08:06:45.416Z,5.50
2019-03-17T08:09:15.330Z,5.60
2019-03-17T08:11:48.315Z,5.50
2019-03-17T08:14:17.206Z,5.50
2019-03-17T08:16:47.944Z,5.80
2019-03-17T08:19:19.898Z,6.10
2019-03-17T08:21:48.791Z,6.30
2019-03-17T08:24:17.681Z,6.50
2019-03-17T08:26:49.970Z,6.50
2019-03-17T08:29:21.005Z,6.60
2019-03-17T08:31:49.879Z,6.60
2019-03-17T08:34:18.771Z,6.60
2019-03-17T08:36:47.762Z,6.70
2019-03-17T08:39:21.260Z,6.60
2019-03-17T08:41:56.574Z,6.60
2019-03-17T08:44:35.527Z,6.60
2019-03-17T08:47:08.104Z,6.70
2019-03-17T08:49:36.902Z,7.00
2019-03-17T08:52:07.728Z,7.10
2019-03-17T08:54:37.641Z,7.20
2019-03-17T08:57:09.807Z,7.20
2019-03-17T08:59:38.699Z,7.20
2019-03-17T09:02:09.092Z,7.20
2019-03-17T09:04:39.048Z,7.10
2019-03-17T09:07:08.541Z,7.00
2019-03-17T09:09:37.433Z,7.10
2019-03-17T09:12:06.442Z,7.00
2019-03-17T09:14:43.404Z,6.90
2019-03-17T09:17:14.720Z,6.80
2019-03-17T09:19:47.027Z,6.80
2019-03-17T09:22:16.842Z,6.80
2019-03-17T09:24:45.721Z,6.90
2019-03-17T09:27:17.113Z,7.00
2019-03-17T09:29:56.211Z,7.00
2019-03-17T09:32:29.433Z,7.10
2019-03-17T09:35:03.593Z,7.20
2019-03-17T09:37:36.130Z,7.20
2019-03-17T09:40:08.150Z,7.30
2019-03-17T09:42:38.056Z,7.50
2019-03-17T09:45:09.409Z,7.40
2019-03-17T09:47:40.966Z,7.40
2019-03-17T09:50:18.049Z,7.30
2019-03-17T09:52:49.121Z,7.40
2019-03-17T09:55:18.071Z,7.40
2019-03-17T09:57:52.288Z,7.40
2019-03-17T10:00:22.405Z,7.50
2019-03-17T10:02:53.759Z,7.50
2019-03-17T10:05:25.201Z,7.50
2019-03-17T10:07:56.651Z,7.80
2019-03-17T10:10:25.645Z,7.80
2019-03-17T10:12:56.688Z,7.80
2019-03-17T10:15:27.827Z,7.80
2019-03-17T10:17:56.628Z,7.70
2019-03-17T10:20:26.530Z,7.50
2019-03-17T10:22:55.424Z,7.50
2019-03-17T10:25:24.411Z,7.50
2019-03-17T10:27:55.965Z,7.50
2019-03-17T10:30:30.844Z,7.30
2019-03-17T10:32:59.786Z,7.20
2019-03-17T10:35:32.298Z,7.00
2019-03-17T10:38:01.148Z,6.80
2019-03-17T10:40:30.140Z,6.80
2019-03-17T10:42:59.035Z,6.80
2019-03-17T10:45:31.812Z,6.70
2019-03-17T10:48:00.803Z,6.60
2019-03-17T10:50:33.621Z,6.60
2019-03-17T10:53:07.606Z,6.60
2019-03-17T10:55:36.486Z,6.50
2019-03-17T10:58:07.541Z,6.50
2019-03-17T11:00:36.416Z,6.50
2019-03-17T11:03:06.251Z,6.50
2019-03-17T11:05:41.569Z,6.60
2019-03-17T11:08:11.483Z,6.60
2019-03-17T11:10:43.649Z,6.50
2019-03-17T11:13:13.494Z,6.60
2019-03-17T11:15:46.037Z,6.50
2019-03-17T11:18:14.929Z,6.50
2019-03-17T11:20:44.840Z,6.50
2019-03-17T11:23:13.836Z,6.50
2019-03-17T11:25:42.725Z,6.50
2019-03-17T11:28:11.716Z,6.40
2019-03-17T11:30:40.605Z,6.40
2019-03-17T11:33:09.495Z,6.30
2019-03-17T11:35:40.886Z,6.30
2019-03-17T11:38:09.841Z,6.40
2019-03-17T11:40:38.827Z,6.40
2019-03-17T11:43:08.985Z,6.50
2019-03-17T11:45:37.939Z,6.50
2019-03-17T11:48:06.832Z,6.50
2019-03-17T11:50:35.720Z,6.50
2019-03-17T11:53:04.712Z,6.40
2019-03-17T11:55:33.599Z,6.50
2019-03-17T11:58:07.087Z,6.60
2019-03-17T12:00:39.996Z,6.50
2019-03-17T12:03:12.355Z,6.50
2019-03-17T12:05:41.247Z,6.40
2019-03-17T12:08:10.137Z,6.40
2019-03-17T12:10:39.230Z,6.40
2019-03-17T12:13:11.811Z,6.40
2019-03-17T12:15:40.796Z,6.40
2019-03-17T12:18:10.716Z,6.40
2019-03-17T12:20:39.705Z,6.50
2019-03-17T12:23:16.097Z,6.50
2019-03-17T12:25:50.456Z,6.60
2019-03-17T12:28:19.485Z,6.60
2019-03-17T12:30:56.765Z,6.60
2019-03-17T12:33:25.657Z,6.60
2019-03-17T12:35:58.745Z,6.50
2019-03-17T12:38:27.633Z,6.50
2019-03-17T12:41:00.517Z,6.50
2019-03-17T12:43:32.075Z,6.50
2019-03-17T12:46:00.971Z,6.40
2019-03-17T12:48:30.977Z,6.40
2019-03-17T12:51:02.358Z,6.40
2019-03-17T12:53:34.593Z,6.30
2019-03-17T12:56:03.483Z,6.30
2019-03-17T12:58:32.373Z,6.30
2019-03-17T13:01:01.263Z,6.30
2019-03-17T13:03:31.282Z,6.30
2019-03-17T13:06:00.273Z,6.20
2019-03-17T13:08:29.161Z,6.20
2019-03-17T13:11:00.101Z,6.30
2019-03-17T13:13:28.990Z,6.30
2019-03-17T13:16:00.446Z,6.20
2019-03-17T13:18:31.657Z,6.20
2019-03-17T13:21:00.403Z,6.30
2019-03-17T13:23:31.205Z,6.20
2019-03-17T13:26:02.655Z,6.30
2019-03-17T13:28:31.648Z,6.30
2019-03-17T13:31:04.633Z,6.30
2019-03-17T13:33:33.522Z,6.30
2019-03-17T13:36:02.513Z,6.20
2019-03-17T13:38:31.405Z,6.20
2019-03-17T13:41:02.956Z,6.20
2019-03-17T13:43:31.847Z,6.30
2019-03-17T13:46:00.838Z,6.30
2019-03-17T13:48:29.730Z,6.30
2019-03-17T13:50:58.619Z,6.30
2019-03-17T13:53:35.290Z,6.20
2019-03-17T13:56:04.180Z,6.30
2019-03-17T13:58:33.074Z,6.30
2019-03-17T14:01:01.963Z,6.30
2019-03-17T14:03:30.852Z,6.30
2019-03-17T14:06:02.305Z,6.30
2019-03-17T14:08:35.651Z,6.30
2019-03-17T14:11:08.586Z,6.30
2019-03-17T14:13:45.108Z,6.20
2019-03-17T14:16:17.733Z,6.30
2019-03-17T14:18:46.616Z,6.30
2019-03-17T14:21:15.514Z,6.20
2019-03-17T14:23:44.500Z,6.20
2019-03-17T14:26:13.390Z,6.30
2019-03-17T14:28:42.279Z,6.20
2019-03-17T14:31:11.167Z,6.20
2019-03-17T14:33:40.158Z,6.20
2019-03-17T14:36:10.078Z,6.20
2019-03-17T14:38:38.965Z,6.10
2019-03-17T14:41:07.855Z,6.10
2019-03-17T14:43:43.811Z,6.10
2019-03-17T14:46:12.551Z,6.10
2019-03-17T14:48:47.636Z,6.10
2019-03-17T14:51:16.526Z,6.10
2019-03-17T14:53:45.410Z,6.10
2019-03-17T14:56:14.307Z,6.10
2019-03-17T14:58:44.187Z,6.10
2019-03-17T15:01:13.205Z,6.10
2019-03-17T15:03:42.123Z,6.10
2019-03-17T15:06:10.904Z,6.10
2019-03-17T15:08:42.537Z,6.10
2019-03-17T15:11:14.706Z,6.10
2019-03-17T15:13:43.699Z,6.20
2019-03-17T15:16:17.504Z,6.20
2019-03-17T15:18:46.399Z,6.20
2019-03-17T15:21:15.393Z,6.10
2019-03-17T15:23:44.272Z,6.20
2019-03-17T15:26:13.021Z,6.20
2019-03-17T15:28:41.952Z,6.20
2019-03-17T15:31:14.941Z,6.20
2019-03-17T15:33:43.831Z,6.20
2019-03-17T15:36:12.716Z,6.30
2019-03-17T15:38:41.608Z,6.30
2019-03-17T15:41:18.489Z,6.30
2019-03-17T15:43:44.098Z,6.30
2019-03-17T15:46:12.987Z,6.30
2019-03-17T15:48:42.097Z,6.30
2019-03-17T15:51:20.281Z,6.40
2019-03-17T15:53:41.499Z,6.40
2019-03-17T15:56:10.391Z,6.40
2019-03-17T15:58:39.278Z,6.30
2019-03-17T16:01:11.960Z,6.40
2019-03-17T16:03:43.511Z,6.40
2019-03-17T16:06:12.401Z,6.40
2019-03-17T16:08:41.393Z,6.40
2019-03-17T16:11:10.285Z,6.40
2019-03-17T16:13:39.278Z,6.40
2019-03-17T16:16:08.167Z,6.40
2019-03-17T16:18:37.063Z,6.40
2019-03-17T16:21:09.085Z,6.30
2019-03-17T16:23:38.158Z,6.30
2019-03-17T16:26:12.241Z,6.30
2019-03-17T16:28:40.988Z,6.30
2019-03-17T16:31:11.212Z,6.30
2019-03-17T16:33:40.432Z,6.30
2019-03-17T16:36:09.424Z,6.40
2019-03-17T16:38:42.046Z,6.40
2019-03-17T16:41:12.142Z,6.40
2019-03-17T16:43:41.246Z,6.40
2019-03-17T16:46:09.997Z,6.40
2019-03-17T16:48:42.849Z,6.30
2019-03-17T16:51:11.771Z,6.40
2019-03-17T16:53:40.663Z,6.40
2019-03-17T16:56:09.555Z,6.30
2019-03-17T16:58:40.874Z,6.40
2019-03-17T17:01:09.791Z,6.40
2019-03-17T17:03:38.685Z,6.40
2019-03-17T17:06:07.675Z,6.40
2019-03-17T17:08:40.460Z,6.40
2019-03-17T17:11:10.202Z,6.40
2019-03-17T17:13:39.157Z,6.40
2019-03-17T17:16:08.043Z,6.40
2019-03-17T17:18:36.934Z,6.40
2019-03-17T17:21:13.645Z,6.40
2019-03-17T17:23:42.600Z,6.50
2019-03-17T17:26:11.487Z,6.50
2019-03-17T17:28:40.377Z,6.50
2019-03-17T17:31:09.266Z,6.50
2019-03-17T17:33:38.100Z,6.50
2019-03-17T17:36:07.048Z,6.60
2019-03-17T17:38:39.683Z,6.60
2019-03-17T17:41:11.163Z,6.60
2019-03-17T17:43:44.650Z,6.60
2019-03-17T17:46:13.565Z,6.60
2019-03-17T17:48:42.462Z,6.60
2019-03-17T17:51:11.446Z,6.60
2019-03-17T17:53:40.250Z,6.60
2019-03-17T17:56:10.354Z,6.60
2019-03-17T17:58:40.370Z,6.60
2019-03-17T18:01:10.387Z,6.70
2019-03-17T18:03:51.139Z,6.70
2019-03-17T18:06:14.464Z,6.70
2019-03-17T18:08:48.499Z,6.70
2019-03-17T18:11:21.460Z,6.70
2019-03-17T18:13:54.489Z,6.80
2019-03-17T18:16:26.085Z,6.80
2019-03-17T18:18:55.631Z,6.80
2019-03-17T18:21:29.785Z,6.80
2019-03-17T18:23:58.760Z,6.80
2019-03-17T18:26:30.898Z,6.80
2019-03-17T18:28:59.814Z,6.80
2019-03-17T18:31:32.343Z,6.90
2019-03-17T18:34:02.203Z,6.80
2019-03-17T18:36:31.219Z,6.80
2019-03-17T18:39:01.464Z,6.90
2019-03-17T18:41:30.480Z,6.90
2019-03-17T18:44:00.595Z,6.80
2019-03-17T18:46:31.264Z,6.90
2019-03-17T18:49:01.816Z,6.80
2019-03-17T18:51:30.614Z,6.80
2019-03-17T18:53:59.671Z,6.80
2019-03-17T18:56:30.657Z,6.90
2019-03-17T18:58:59.923Z,6.90
2019-03-17T19:01:29.039Z,6.90
2019-03-17T19:03:59.255Z,7.00
2019-03-17T19:06:29.000Z,7.00
2019-03-17T19:08:59.463Z,6.90
2019-03-17T19:11:29.480Z,6.90
2019-03-17T19:14:01.112Z,6.90
2019-03-17T19:16:34.097Z,6.90
2019-03-17T19:19:07.720Z,6.90
2019-03-17T19:21:40.882Z,6.90
2019-03-17T19:24:09.800Z,6.90
2019-03-17T19:26:38.690Z,6.90
2019-03-17T19:29:07.685Z,6.90
2019-03-17T19:31:36.675Z,6.90
2019-03-17T19:34:10.204Z,6.90
2019-03-17T19:36:38.766Z,6.90
2019-03-17T19:39:08.086Z,6.90
2019-03-17T19:41:37.485Z,6.80
2019-03-17T19:44:11.264Z,6.80
2019-03-17T19:46:40.812Z,6.80
2019-03-17T19:49:11.147Z,6.80
2019-03-17T19:51:41.040Z,6.90
2019-03-17T19:54:10.100Z,6.90
2019-03-17T19:56:39.094Z,6.80
2019-03-17T19:59:08.188Z,6.80
2019-03-17T20:01:38.076Z,6.90
2019-03-17T20:04:07.263Z,6.90
2019-03-17T20:06:39.908Z,6.90
2019-03-17T20:09:09.318Z,6.90
2019-03-17T20:11:38.620Z,7.00
2019-03-17T20:14:10.138Z,7.00
2019-03-17T20:16:39.182Z,7.00
2019-03-17T20:19:09.566Z,6.90
2019-03-17T20:21:38.964Z,7.00
2019-03-17T20:24:08.009Z,7.00
2019-03-17T20:26:36.864Z,7.00
2019-03-17T20:29:07.211Z,7.00
2019-03-17T20:31:37.552Z,7.00
2019-03-17T20:34:08.864Z,7.00
2019-03-17T20:36:38.252Z,7.10
2019-03-17T20:39:07.581Z,7.10
2019-03-17T20:41:36.630Z,7.10
2019-03-17T20:44:06.233Z,7.10
2019-03-17T20:46:35.328Z,7.10
2019-03-17T20:49:11.470Z,7.20
2019-03-17T20:51:43.625Z,7.30
2019-03-17T20:54:13.091Z,7.30
2019-03-17T20:56:43.017Z,7.30
2019-03-17T20:59:13.442Z,7.40
2019-03-17T21:01:42.206Z,7.40
2019-03-17T21:04:11.360Z,7.40
2019-03-17T21:06:40.478Z,7.40
2019-03-17T21:09:12.908Z,7.50
2019-03-17T21:11:46.011Z,7.50
2019-03-17T21:14:16.191Z,7.50
2019-03-17T21:16:46.570Z,7.50
2019-03-17T21:19:25.767Z,7.40
2019-03-17T21:21:54.170Z,7.40
2019-03-17T21:24:24.548Z,7.40
2019-03-17T21:26:56.817Z,7.40
2019-03-17T21:29:28.287Z,7.40
2019-03-17T21:32:01.084Z,7.40
2019-03-17T21:34:32.004Z,7.40
2019-03-17T21:37:05.007Z,7.30
2019-03-17T21:39:36.585Z,7.40
2019-03-17T21:42:06.340Z,7.40
2019-03-17T21:44:39.220Z,7.50
2019-03-17T21:47:12.502Z,7.40
2019-03-17T21:49:42.074Z,7.40
2019-03-17T21:52:16.625Z,7.40
2019-03-17T21:54:49.015Z,7.40
2019-03-17T21:57:24.995Z,7.40
2019-03-17T21:59:55.128Z,7.40
2019-03-17T22:02:25.210Z,7.40
2019-03-17T22:04:58.351Z,7.40
2019-03-17T22:07:29.083Z,7.40
2019-03-17T22:10:01.637Z,7.40
2019-03-17T22:12:35.038Z,7.40
2019-03-17T22:15:09.823Z,7.50
2019-03-17T22:17:41.770Z,7.50
2019-03-17T22:20:17.462Z,7.50
2019-03-17T22:22:55.028Z,7.40
2019-03-17T22:25:31.785Z,7.40
2019-03-17T22:28:10.405Z,7.40
2019-03-17T22:30:46.360Z,7.40
2019-03-17T22:33:17.840Z,7.40
2019-03-17T22:35:51.630Z,7.40
2019-03-17T22:38:23.808Z,7.50
2019-03-17T22:41:02.543Z,7.50
2019-03-17T22:43:38.291Z,7.40
2019-03-17T22:46:07.883Z,7.40
2019-03-17T22:48:42.404Z,7.30
2019-03-17T22:51:13.997Z,7.30
2019-03-17T22:53:47.484Z,7.20
2019-03-17T22:56:26.555Z,7.20
2019-03-17T22:58:55.575Z,7.10
2019-03-17T23:01:26.133Z,7.10
2019-03-17T23:03:55.599Z,7.00
2019-03-17T23:06:28.632Z,7.00
2019-03-17T23:09:00.529Z,6.90
2019-03-17T23:11:29.955Z,6.90
2019-03-17T23:14:02.126Z,6.90
2019-03-17T23:16:36.358Z,6.80
2019-03-17T23:19:05.674Z,6.70
2019-03-17T23:21:35.221Z,6.70
2019-03-17T23:24:04.867Z,6.60
2019-03-17T23:26:33.891Z,6.60
2019-03-17T23:29:03.094Z,6.50
2019-03-17T23:31:36.410Z,6.50
2019-03-17T23:34:05.770Z,6.40
2019-03-17T23:36:35.099Z,6.40
2019-03-17T23:39:07.129Z,6.40
2019-03-17T23:41:36.798Z,6.40
2019-03-17T23:44:10.051Z,6.40
2019-03-17T23:46:39.314Z,6.30
2019-03-17T23:49:08.678Z,6.30
2019-03-17T23:51:39.210Z,6.30
2019-03-17T23:54:08.758Z,6.30
2019-03-17T23:56:38.437Z,6.40
2019-03-17T23:59:07.863Z,6.30
